sensor_id;sensor_type;location;lat;lon;timestamp;P1;durP1;ratioP1;P2;durP2;ratioP2
77866;SDS011;67271;59.120;37.970;2023-03-24T00:03:12;11.02;;;5.85;;
77866;SDS011;67271;59.120;37.970;2023-03-24T00:05:41;11.43;;;6.57;;
77866;SDS011;67271;59.120;37.970;2023-03-24T00:08:08;13.05;;;6.50;;
77866;SDS011;67271;59.120;37.970;2023-03-24T00:10:34;13.55;;;7.35;;
77866;SDS011;67271;59.120;37.970;2023-03-24T00:13:01;13.95;;;7.53;;
77866;SDS011;67271;59.120;37.970;2023-03-24T00:15:28;14.73;;;6.63;;
77866;SDS011;67271;59.120;37.970;2023-03-24T00:17:54;13.43;;;6.75;;
77866;SDS011;67271;59.120;37.970;2023-03-24T00:20:22;12.30;;;6.55;;
77866;SDS011;67271;59.120;37.970;2023-03-24T00:22:51;11.25;;;6.05;;
77866;SDS011;67271;59.120;37.970;2023-03-24T00:25:24;10.05;;;5.90;;
77866;SDS011;67271;59.120;37.970;2023-03-24T00:30:19;10.85;;;6.20;;
77866;SDS011;67271;59.120;37.970;2023-03-24T00:32:45;9.40;;;5.25;;
77866;SDS011;67271;59.120;37.970;2023-03-24T00:35:12;11.05;;;6.03;;
77866;SDS011;67271;59.120;37.970;2023-03-24T00:37:40;25.02;;;6.28;;
77866;SDS011;67271;59.120;37.970;2023-03-24T00:40:08;12.23;;;6.07;;
77866;SDS011;67271;59.120;37.970;2023-03-24T00:42:41;10.80;;;5.68;;
77866;SDS011;67271;59.120;37.970;2023-03-24T00:45:12;9.15;;;5.05;;
77866;SDS011;67271;59.120;37.970;2023-03-24T00:47:40;9.75;;;5.68;;
77866;SDS011;67271;59.120;37.970;2023-03-24T00:50:13;10.88;;;4.82;;
77866;SDS011;67271;59.120;37.970;2023-03-24T00:52:41;11.95;;;5.90;;
77866;SDS011;67271;59.120;37.970;2023-03-24T00:55:12;9.30;;;5.53;;
77866;SDS011;67271;59.120;37.970;2023-03-24T00:57:40;9.20;;;4.90;;
77866;SDS011;67271;59.120;37.970;2023-03-24T01:00:18;12.38;;;6.63;;
77866;SDS011;67271;59.120;37.970;2023-03-24T01:02:48;8.88;;;5.05;;
77866;SDS011;67271;59.120;37.970;2023-03-24T01:05:19;7.60;;;4.85;;
77866;SDS011;67271;59.120;37.970;2023-03-24T01:07:49;9.45;;;4.97;;
77866;SDS011;67271;59.120;37.970;2023-03-24T01:10:17;10.50;;;6.05;;
77866;SDS011;67271;59.120;37.970;2023-03-24T01:12:46;9.05;;;4.75;;
77866;SDS011;67271;59.120;37.970;2023-03-24T01:15:17;8.57;;;5.07;;
77866;SDS011;67271;59.120;37.970;2023-03-24T01:17:45;9.75;;;5.65;;
77866;SDS011;67271;59.120;37.970;2023-03-24T01:20:13;9.68;;;5.68;;
77866;SDS011;67271;59.120;37.970;2023-03-24T01:22:40;12.77;;;6.13;;
77866;SDS011;67271;59.120;37.970;2023-03-24T01:25:19;9.35;;;5.40;;
77866;SDS011;67271;59.120;37.970;2023-03-24T01:27:47;10.10;;;5.32;;
77866;SDS011;67271;59.120;37.970;2023-03-24T01:30:15;8.55;;;5.13;;
77866;SDS011;67271;59.120;37.970;2023-03-24T01:32:43;9.40;;;5.47;;
77866;SDS011;67271;59.120;37.970;2023-03-24T01:35:09;7.75;;;4.95;;
77866;SDS011;67271;59.120;37.970;2023-03-24T01:37:36;8.63;;;4.78;;
77866;SDS011;67271;59.120;37.970;2023-03-24T01:40:03;7.18;;;4.68;;
77866;SDS011;67271;59.120;37.970;2023-03-24T01:42:37;7.43;;;4.60;;
77866;SDS011;67271;59.120;37.970;2023-03-24T01:48:00;6.68;;;4.50;;
77866;SDS011;67271;59.120;37.970;2023-03-24T01:50:28;7.07;;;4.28;;
77866;SDS011;67271;59.120;37.970;2023-03-24T01:52:55;8.38;;;4.38;;
77866;SDS011;67271;59.120;37.970;2023-03-24T01:55:21;7.80;;;4.70;;
77866;SDS011;67271;59.120;37.970;2023-03-24T01:57:50;7.60;;;4.05;;
77866;SDS011;67271;59.120;37.970;2023-03-24T02:00:23;7.50;;;3.97;;
77866;SDS011;67271;59.120;37.970;2023-03-24T02:03:17;7.53;;;4.30;;
77866;SDS011;67271;59.120;37.970;2023-03-24T02:05:51;6.28;;;3.65;;
77866;SDS011;67271;59.120;37.970;2023-03-24T02:08:30;6.50;;;3.40;;
77866;SDS011;67271;59.120;37.970;2023-03-24T02:11:01;5.60;;;3.80;;
77866;SDS011;67271;59.120;37.970;2023-03-24T02:13:36;6.75;;;3.97;;
77866;SDS011;67271;59.120;37.970;2023-03-24T02:16:08;5.40;;;3.65;;
77866;SDS011;67271;59.120;37.970;2023-03-24T02:36:22;6.85;;;4.30;;
77866;SDS011;67271;59.120;37.970;2023-03-24T02:47:55;7.25;;;3.80;;
77866;SDS011;67271;59.120;37.970;2023-03-24T02:50:41;7.35;;;4.55;;
77866;SDS011;67271;59.120;37.970;2023-03-24T02:53:14;6.35;;;3.75;;
77866;SDS011;67271;59.120;37.970;2023-03-24T02:58:50;6.70;;;3.95;;
77866;SDS011;67271;59.120;37.970;2023-03-24T03:01:22;5.95;;;3.63;;
77866;SDS011;67271;59.120;37.970;2023-03-24T03:04:33;8.35;;;4.95;;
77866;SDS011;67271;59.120;37.970;2023-03-24T03:07:04;9.32;;;5.13;;
77866;SDS011;67271;59.120;37.970;2023-03-24T03:09:40;9.23;;;4.75;;
77866;SDS011;67271;59.120;37.970;2023-03-24T03:12:12;10.30;;;5.75;;
77866;SDS011;67271;59.120;37.970;2023-03-24T03:14:49;9.85;;;5.43;;
77866;SDS011;67271;59.120;37.970;2023-03-24T03:17:21;10.75;;;5.05;;
77866;SDS011;67271;59.120;37.970;2023-03-24T03:19:56;9.52;;;4.88;;
77866;SDS011;67271;59.120;37.970;2023-03-24T03:22:30;9.55;;;5.72;;
77866;SDS011;67271;59.120;37.970;2023-03-24T03:25:03;9.95;;;5.50;;
77866;SDS011;67271;59.120;37.970;2023-03-24T03:27:31;15.07;;;7.18;;
77866;SDS011;67271;59.120;37.970;2023-03-24T03:30:05;10.13;;;6.32;;
77866;SDS011;67271;59.120;37.970;2023-03-24T03:33:01;10.93;;;5.78;;
77866;SDS011;67271;59.120;37.970;2023-03-24T03:41:10;12.02;;;6.93;;
77866;SDS011;67271;59.120;37.970;2023-03-24T03:43:36;14.10;;;7.50;;
77866;SDS011;67271;59.120;37.970;2023-03-24T03:46:04;15.98;;;7.68;;
77866;SDS011;67271;59.120;37.970;2023-03-24T03:48:34;14.88;;;6.85;;
77866;SDS011;67271;59.120;37.970;2023-03-24T03:51:02;11.48;;;6.95;;
77866;SDS011;67271;59.120;37.970;2023-03-24T03:53:35;12.27;;;7.25;;
77866;SDS011;67271;59.120;37.970;2023-03-24T03:56:09;12.93;;;7.55;;
77866;SDS011;67271;59.120;37.970;2023-03-24T03:58:44;18.98;;;9.80;;
77866;SDS011;67271;59.120;37.970;2023-03-24T04:01:14;13.73;;;7.25;;
77866;SDS011;67271;59.120;37.970;2023-03-24T04:04:30;11.05;;;6.97;;
77866;SDS011;67271;59.120;37.970;2023-03-24T04:07:21;13.68;;;5.40;;
77866;SDS011;67271;59.120;37.970;2023-03-24T04:10:22;12.85;;;6.53;;
77866;SDS011;67271;59.120;37.970;2023-03-24T04:12:59;22.42;;;8.65;;
77866;SDS011;67271;59.120;37.970;2023-03-24T04:22:44;18.25;;;6.95;;
77866;SDS011;67271;59.120;37.970;2023-03-24T04:28:52;17.40;;;9.20;;
77866;SDS011;67271;59.120;37.970;2023-03-24T04:34:19;20.60;;;10.70;;
77866;SDS011;67271;59.120;37.970;2023-03-24T04:36:56;17.48;;;9.95;;
77866;SDS011;67271;59.120;37.970;2023-03-24T04:39:51;20.48;;;10.90;;
77866;SDS011;67271;59.120;37.970;2023-03-24T04:42:29;18.30;;;8.18;;
77866;SDS011;67271;59.120;37.970;2023-03-24T04:45:00;12.55;;;6.47;;
77866;SDS011;67271;59.120;37.970;2023-03-24T04:47:46;21.92;;;6.70;;
77866;SDS011;67271;59.120;37.970;2023-03-24T04:50:39;12.18;;;6.45;;
77866;SDS011;67271;59.120;37.970;2023-03-24T04:53:12;17.98;;;7.55;;
77866;SDS011;67271;59.120;37.970;2023-03-24T04:58:19;15.75;;;6.95;;
77866;SDS011;67271;59.120;37.970;2023-03-24T05:00:46;13.93;;;6.57;;
77866;SDS011;67271;59.120;37.970;2023-03-24T05:03:14;17.23;;;6.38;;
77866;SDS011;67271;59.120;37.970;2023-03-24T05:05:42;14.20;;;6.30;;
77866;SDS011;67271;59.120;37.970;2023-03-24T05:08:10;12.77;;;6.65;;
77866;SDS011;67271;59.120;37.970;2023-03-24T05:10:36;16.27;;;6.15;;
77866;SDS011;67271;59.120;37.970;2023-03-24T05:13:05;13.40;;;6.50;;
77866;SDS011;67271;59.120;37.970;2023-03-24T05:15:32;11.45;;;5.68;;
77866;SDS011;67271;59.120;37.970;2023-03-24T05:18:15;12.23;;;6.43;;
77866;SDS011;67271;59.120;37.970;2023-03-24T05:20:41;22.85;;;6.80;;
77866;SDS011;67271;59.120;37.970;2023-03-24T05:23:15;13.35;;;6.80;;
77866;SDS011;67271;59.120;37.970;2023-03-24T05:25:44;13.52;;;7.25;;
77866;SDS011;67271;59.120;37.970;2023-03-24T05:28:11;12.98;;;7.10;;
77866;SDS011;67271;59.120;37.970;2023-03-24T05:30:38;11.75;;;6.50;;
77866;SDS011;67271;59.120;37.970;2023-03-24T05:33:14;10.05;;;5.43;;
77866;SDS011;67271;59.120;37.970;2023-03-24T05:35:40;9.00;;;5.03;;
77866;SDS011;67271;59.120;37.970;2023-03-24T05:38:06;10.18;;;5.32;;
77866;SDS011;67271;59.120;37.970;2023-03-24T05:40:32;18.25;;;4.75;;
77866;SDS011;67271;59.120;37.970;2023-03-24T05:43:09;8.80;;;4.70;;
77866;SDS011;67271;59.120;37.970;2023-03-24T05:45:40;20.63;;;5.57;;
77866;SDS011;67271;59.120;37.970;2023-03-24T05:48:07;9.95;;;4.95;;
77866;SDS011;67271;59.120;37.970;2023-03-24T05:50:53;11.43;;;4.90;;
77866;SDS011;67271;59.120;37.970;2023-03-24T05:53:20;14.57;;;6.03;;
77866;SDS011;67271;59.120;37.970;2023-03-24T05:56:04;8.15;;;5.00;;
77866;SDS011;67271;59.120;37.970;2023-03-24T05:58:54;11.73;;;5.15;;
77866;SDS011;67271;59.120;37.970;2023-03-24T06:01:22;15.40;;;5.13;;
77866;SDS011;67271;59.120;37.970;2023-03-24T06:03:56;9.75;;;5.07;;
77866;SDS011;67271;59.120;37.970;2023-03-24T06:06:22;13.70;;;5.35;;
77866;SDS011;67271;59.120;37.970;2023-03-24T06:08:48;17.90;;;6.68;;
77866;SDS011;67271;59.120;37.970;2023-03-24T06:11:15;15.48;;;7.15;;
77866;SDS011;67271;59.120;37.970;2023-03-24T06:13:52;28.00;;;5.50;;
77866;SDS011;67271;59.120;37.970;2023-03-24T06:16:26;11.43;;;5.68;;
77866;SDS011;67271;59.120;37.970;2023-03-24T06:18:59;11.73;;;5.63;;
77866;SDS011;67271;59.120;37.970;2023-03-24T06:22:00;15.10;;;5.57;;
77866;SDS011;67271;59.120;37.970;2023-03-24T06:24:37;65.47;;;7.03;;
77866;SDS011;67271;59.120;37.970;2023-03-24T06:27:07;11.50;;;5.28;;
77866;SDS011;67271;59.120;37.970;2023-03-24T06:29:34;13.88;;;5.03;;
77866;SDS011;67271;59.120;37.970;2023-03-24T06:32:01;23.48;;;6.38;;
77866;SDS011;67271;59.120;37.970;2023-03-24T06:34:34;47.67;;;9.02;;
77866;SDS011;67271;59.120;37.970;2023-03-24T06:37:12;18.48;;;5.78;;
77866;SDS011;67271;59.120;37.970;2023-03-24T06:39:39;108.43;;;12.52;;
77866;SDS011;67271;59.120;37.970;2023-03-24T06:42:05;43.63;;;8.57;;
77866;SDS011;67271;59.120;37.970;2023-03-24T06:44:32;87.32;;;10.48;;
77866;SDS011;67271;59.120;37.970;2023-03-24T06:46:58;98.38;;;9.32;;
77866;SDS011;67271;59.120;37.970;2023-03-24T06:49:24;73.28;;;10.93;;
77866;SDS011;67271;59.120;37.970;2023-03-24T06:51:50;65.50;;;9.35;;
77866;SDS011;67271;59.120;37.970;2023-03-24T06:54:17;65.32;;;8.20;;
77866;SDS011;67271;59.120;37.970;2023-03-24T06:56:43;96.47;;;11.07;;
77866;SDS011;67271;59.120;37.970;2023-03-24T06:59:10;108.25;;;11.43;;
77866;SDS011;67271;59.120;37.970;2023-03-24T07:01:36;37.13;;;8.02;;
77866;SDS011;67271;59.120;37.970;2023-03-24T07:04:23;78.70;;;9.63;;
77866;SDS011;67271;59.120;37.970;2023-03-24T07:06:51;92.38;;;11.38;;
77866;SDS011;67271;59.120;37.970;2023-03-24T07:09:26;84.95;;;11.05;;
77866;SDS011;67271;59.120;37.970;2023-03-24T07:11:55;103.20;;;9.85;;
77866;SDS011;67271;59.120;37.970;2023-03-24T07:14:21;70.68;;;9.40;;
77866;SDS011;67271;59.120;37.970;2023-03-24T07:16:51;70.13;;;11.57;;
77866;SDS011;67271;59.120;37.970;2023-03-24T07:19:50;24.95;;;9.02;;
77866;SDS011;67271;59.120;37.970;2023-03-24T07:22:45;47.53;;;9.55;;
77866;SDS011;67271;59.120;37.970;2023-03-24T07:25:49;34.17;;;8.77;;
77866;SDS011;67271;59.120;37.970;2023-03-24T07:28:23;63.22;;;9.75;;
77866;SDS011;67271;59.120;37.970;2023-03-24T07:30:49;46.70;;;10.95;;
77866;SDS011;67271;59.120;37.970;2023-03-24T07:33:17;56.72;;;10.45;;
77866;SDS011;67271;59.120;37.970;2023-03-24T07:35:43;60.45;;;8.77;;
77866;SDS011;67271;59.120;37.970;2023-03-24T07:38:10;51.42;;;9.50;;
77866;SDS011;67271;59.120;37.970;2023-03-24T07:40:36;49.15;;;8.10;;
77866;SDS011;67271;59.120;37.970;2023-03-24T07:43:03;69.75;;;10.50;;
77866;SDS011;67271;59.120;37.970;2023-03-24T07:45:30;38.25;;;11.60;;
77866;SDS011;67271;59.120;37.970;2023-03-24T07:47:57;43.97;;;10.52;;
77866;SDS011;67271;59.120;37.970;2023-03-24T07:50:28;65.10;;;8.57;;
77866;SDS011;67271;59.120;37.970;2023-03-24T07:52:56;44.03;;;9.07;;
77866;SDS011;67271;59.120;37.970;2023-03-24T07:55:23;48.42;;;9.95;;
77866;SDS011;67271;59.120;37.970;2023-03-24T07:58:00;33.70;;;8.65;;
77866;SDS011;67271;59.120;37.970;2023-03-24T08:00:31;27.13;;;7.55;;
77866;SDS011;67271;59.120;37.970;2023-03-24T08:03:30;38.92;;;7.88;;
77866;SDS011;67271;59.120;37.970;2023-03-24T08:06:18;25.17;;;6.00;;
77866;SDS011;67271;59.120;37.970;2023-03-24T08:08:51;27.42;;;6.40;;
77866;SDS011;67271;59.120;37.970;2023-03-24T08:11:17;32.60;;;5.20;;
77866;SDS011;67271;59.120;37.970;2023-03-24T08:13:42;10.95;;;4.85;;
77866;SDS011;67271;59.120;37.970;2023-03-24T08:16:08;10.05;;;5.10;;
77866;SDS011;67271;59.120;37.970;2023-03-24T08:18:37;7.65;;;4.28;;
77866;SDS011;67271;59.120;37.970;2023-03-24T08:21:03;7.60;;;4.05;;
77866;SDS011;67271;59.120;37.970;2023-03-24T08:23:29;10.63;;;5.45;;
77866;SDS011;67271;59.120;37.970;2023-03-24T08:25:56;10.43;;;4.60;;
77866;SDS011;67271;59.120;37.970;2023-03-24T08:28:22;26.95;;;5.60;;
77866;SDS011;67271;59.120;37.970;2023-03-24T08:30:48;11.13;;;5.75;;
77866;SDS011;67271;59.120;37.970;2023-03-24T08:33:14;21.33;;;5.18;;
77866;SDS011;67271;59.120;37.970;2023-03-24T08:35:41;20.33;;;4.95;;
77866;SDS011;67271;59.120;37.970;2023-03-24T08:38:09;14.90;;;4.30;;
77866;SDS011;67271;59.120;37.970;2023-03-24T08:40:40;9.77;;;5.28;;
77866;SDS011;67271;59.120;37.970;2023-03-24T08:43:07;9.30;;;4.90;;
77866;SDS011;67271;59.120;37.970;2023-03-24T08:45:36;9.70;;;4.57;;
77866;SDS011;67271;59.120;37.970;2023-03-24T08:48:03;12.07;;;5.97;;
77866;SDS011;67271;59.120;37.970;2023-03-24T08:50:35;12.73;;;5.30;;
77866;SDS011;67271;59.120;37.970;2023-03-24T08:53:03;12.32;;;6.30;;
77866;SDS011;67271;59.120;37.970;2023-03-24T08:55:29;12.50;;;6.03;;
77866;SDS011;67271;59.120;37.970;2023-03-24T08:57:55;11.57;;;5.95;;
77866;SDS011;67271;59.120;37.970;2023-03-24T09:00:21;15.77;;;7.57;;
77866;SDS011;67271;59.120;37.970;2023-03-24T09:02:48;15.15;;;8.52;;
77866;SDS011;67271;59.120;37.970;2023-03-24T09:05:16;15.20;;;7.75;;
77866;SDS011;67271;59.120;37.970;2023-03-24T09:07:46;14.07;;;8.20;;
77866;SDS011;67271;59.120;37.970;2023-03-24T09:10:13;13.25;;;8.13;;
77866;SDS011;67271;59.120;37.970;2023-03-24T09:12:40;12.23;;;7.80;;
77866;SDS011;67271;59.120;37.970;2023-03-24T09:15:10;11.65;;;6.65;;
77866;SDS011;67271;59.120;37.970;2023-03-24T09:17:37;12.45;;;6.07;;
77866;SDS011;67271;59.120;37.970;2023-03-24T09:20:07;10.30;;;5.95;;
77866;SDS011;67271;59.120;37.970;2023-03-24T09:22:37;11.38;;;7.00;;
77866;SDS011;67271;59.120;37.970;2023-03-24T09:25:04;8.30;;;5.22;;
77866;SDS011;67271;59.120;37.970;2023-03-24T09:27:30;8.75;;;5.50;;
77866;SDS011;67271;59.120;37.970;2023-03-24T09:29:56;9.73;;;5.03;;
77866;SDS011;67271;59.120;37.970;2023-03-24T09:32:22;10.55;;;4.65;;
77866;SDS011;67271;59.120;37.970;2023-03-24T09:34:48;12.45;;;5.07;;
77866;SDS011;67271;59.120;37.970;2023-03-24T09:37:14;8.82;;;4.40;;
77866;SDS011;67271;59.120;37.970;2023-03-24T09:39:40;9.10;;;5.30;;
77866;SDS011;67271;59.120;37.970;2023-03-24T09:42:06;8.88;;;5.28;;
77866;SDS011;67271;59.120;37.970;2023-03-24T09:44:39;8.25;;;5.38;;
77866;SDS011;67271;59.120;37.970;2023-03-24T09:49:56;7.07;;;4.55;;
77866;SDS011;67271;59.120;37.970;2023-03-24T09:52:31;10.40;;;6.38;;
77866;SDS011;67271;59.120;37.970;2023-03-24T09:55:02;9.10;;;5.88;;
77866;SDS011;67271;59.120;37.970;2023-03-24T10:00:07;10.75;;;5.50;;
77866;SDS011;67271;59.120;37.970;2023-03-24T10:02:42;9.60;;;5.80;;
77866;SDS011;67271;59.120;37.970;2023-03-24T10:05:16;10.63;;;5.95;;
77866;SDS011;67271;59.120;37.970;2023-03-24T10:07:44;10.93;;;6.32;;
77866;SDS011;67271;59.120;37.970;2023-03-24T10:13:19;10.10;;;6.38;;
77866;SDS011;67271;59.120;37.970;2023-03-24T10:16:06;12.07;;;6.40;;
77866;SDS011;67271;59.120;37.970;2023-03-24T10:18:45;11.00;;;6.10;;
77866;SDS011;67271;59.120;37.970;2023-03-24T10:21:35;8.40;;;5.28;;
77866;SDS011;67271;59.120;37.970;2023-03-24T10:24:17;8.52;;;5.00;;
77866;SDS011;67271;59.120;37.970;2023-03-24T10:27:29;11.10;;;5.32;;
77866;SDS011;67271;59.120;37.970;2023-03-24T10:29:59;8.40;;;4.65;;
77866;SDS011;67271;59.120;37.970;2023-03-24T10:32:36;7.57;;;4.32;;
77866;SDS011;67271;59.120;37.970;2023-03-24T10:35:03;8.13;;;3.67;;
77866;SDS011;67271;59.120;37.970;2023-03-24T10:37:35;7.70;;;4.55;;
77866;SDS011;67271;59.120;37.970;2023-03-24T10:40:01;6.82;;;3.38;;
77866;SDS011;67271;59.120;37.970;2023-03-24T10:42:36;5.45;;;3.08;;
77866;SDS011;67271;59.120;37.970;2023-03-24T10:45:03;5.53;;;3.40;;
77866;SDS011;67271;59.120;37.970;2023-03-24T10:47:29;6.45;;;3.38;;
77866;SDS011;67271;59.120;37.970;2023-03-24T10:52:26;6.88;;;4.28;;
77866;SDS011;67271;59.120;37.970;2023-03-24T10:54:56;5.03;;;3.58;;
77866;SDS011;67271;59.120;37.970;2023-03-24T10:57:23;6.85;;;4.05;;
77866;SDS011;67271;59.120;37.970;2023-03-24T10:59:57;6.95;;;3.60;;
77866;SDS011;67271;59.120;37.970;2023-03-24T11:02:41;6.50;;;3.42;;
77866;SDS011;67271;59.120;37.970;2023-03-24T11:07:41;5.93;;;3.72;;
77866;SDS011;67271;59.120;37.970;2023-03-24T11:15:22;7.05;;;4.30;;
77866;SDS011;67271;59.120;37.970;2023-03-24T11:17:56;6.03;;;3.80;;
77866;SDS011;67271;59.120;37.970;2023-03-24T11:23:08;7.00;;;4.40;;
77866;SDS011;67271;59.120;37.970;2023-03-24T11:25:35;5.88;;;3.75;;
77866;SDS011;67271;59.120;37.970;2023-03-24T11:28:13;8.63;;;4.85;;
77866;SDS011;67271;59.120;37.970;2023-03-24T11:34:02;20.67;;;9.23;;
77866;SDS011;67271;59.120;37.970;2023-03-24T11:39:02;15.55;;;8.65;;
77866;SDS011;67271;59.120;37.970;2023-03-24T11:41:29;11.73;;;7.57;;
77866;SDS011;67271;59.120;37.970;2023-03-24T11:46:54;11.77;;;7.13;;
77866;SDS011;67271;59.120;37.970;2023-03-24T11:49:27;10.13;;;6.70;;
77866;SDS011;67271;59.120;37.970;2023-03-24T11:51:57;11.70;;;6.30;;
77866;SDS011;67271;59.120;37.970;2023-03-24T11:54:26;10.27;;;6.28;;
77866;SDS011;67271;59.120;37.970;2023-03-24T11:56:58;9.00;;;5.82;;
77866;SDS011;67271;59.120;37.970;2023-03-24T12:10:52;9.77;;;5.47;;
77866;SDS011;67271;59.120;37.970;2023-03-24T12:13:41;9.25;;;5.07;;
77866;SDS011;67271;59.120;37.970;2023-03-24T12:16:20;7.43;;;4.68;;
77866;SDS011;67271;59.120;37.970;2023-03-24T12:18:53;10.95;;;5.70;;
77866;SDS011;67271;59.120;37.970;2023-03-24T12:21:53;9.63;;;5.00;;
77866;SDS011;67271;59.120;37.970;2023-03-24T12:24:33;8.80;;;5.47;;
77866;SDS011;67271;59.120;37.970;2023-03-24T12:27:20;11.35;;;6.20;;
77866;SDS011;67271;59.120;37.970;2023-03-24T12:29:56;9.80;;;5.22;;
77866;SDS011;67271;59.120;37.970;2023-03-24T12:38:33;10.68;;;6.25;;
77866;SDS011;67271;59.120;37.970;2023-03-24T12:46:42;11.20;;;6.72;;
77866;SDS011;67271;59.120;37.970;2023-03-24T12:49:38;13.82;;;8.05;;
77866;SDS011;67271;59.120;37.970;2023-03-24T12:55:00;15.05;;;8.63;;
77866;SDS011;67271;59.120;37.970;2023-03-24T12:57:31;16.85;;;7.82;;
77866;SDS011;67271;59.120;37.970;2023-03-24T13:00:24;12.32;;;7.30;;
77866;SDS011;67271;59.120;37.970;2023-03-24T13:02:58;9.65;;;6.30;;
77866;SDS011;67271;59.120;37.970;2023-03-24T13:05:30;13.13;;;6.35;;
77866;SDS011;67271;59.120;37.970;2023-03-24T13:08:02;10.40;;;5.78;;
77866;SDS011;67271;59.120;37.970;2023-03-24T13:10:35;10.60;;;4.68;;
77866;SDS011;67271;59.120;37.970;2023-03-24T13:13:07;7.20;;;4.60;;
77866;SDS011;67271;59.120;37.970;2023-03-24T13:23:19;9.20;;;4.22;;
77866;SDS011;67271;59.120;37.970;2023-03-24T13:31:49;8.10;;;4.88;;
77866;SDS011;67271;59.120;37.970;2023-03-24T13:39:35;7.50;;;3.70;;
77866;SDS011;67271;59.120;37.970;2023-03-24T13:42:02;5.95;;;3.88;;
77866;SDS011;67271;59.120;37.970;2023-03-24T13:44:38;16.02;;;8.15;;
77866;SDS011;67271;59.120;37.970;2023-03-24T13:47:12;6.15;;;4.15;;
77866;SDS011;67271;59.120;37.970;2023-03-24T13:49:39;6.00;;;3.60;;
77866;SDS011;67271;59.120;37.970;2023-03-24T13:52:42;6.97;;;3.40;;
77866;SDS011;67271;59.120;37.970;2023-03-24T13:55:15;5.00;;;3.20;;
77866;SDS011;67271;59.120;37.970;2023-03-24T13:57:50;5.72;;;3.20;;
77866;SDS011;67271;59.120;37.970;2023-03-24T14:03:34;5.05;;;3.47;;
77866;SDS011;67271;59.120;37.970;2023-03-24T14:06:03;5.65;;;3.60;;
77866;SDS011;67271;59.120;37.970;2023-03-24T14:14:06;6.95;;;3.85;;
77866;SDS011;67271;59.120;37.970;2023-03-24T14:16:48;5.78;;;3.13;;
77866;SDS011;67271;59.120;37.970;2023-03-24T14:19:31;5.97;;;3.80;;
77866;SDS011;67271;59.120;37.970;2023-03-24T14:22:23;9.63;;;3.45;;
77866;SDS011;67271;59.120;37.970;2023-03-24T14:24:58;6.10;;;4.07;;
77866;SDS011;67271;59.120;37.970;2023-03-24T14:30:43;6.70;;;4.03;;
77866;SDS011;67271;59.120;37.970;2023-03-24T14:33:02;11.52;;;4.90;;
77866;SDS011;67271;59.120;37.970;2023-03-24T14:43:28;8.32;;;4.20;;
77866;SDS011;67271;59.120;37.970;2023-03-24T14:48:54;10.85;;;4.13;;
77866;SDS011;67271;59.120;37.970;2023-03-24T14:51:40;7.05;;;4.03;;
77866;SDS011;67271;59.120;37.970;2023-03-24T14:54:14;6.78;;;3.95;;
77866;SDS011;67271;59.120;37.970;2023-03-24T14:56:41;7.55;;;5.13;;
77866;SDS011;67271;59.120;37.970;2023-03-24T15:10:14;8.23;;;3.80;;
77866;SDS011;67271;59.120;37.970;2023-03-24T15:12:45;6.70;;;3.88;;
77866;SDS011;67271;59.120;37.970;2023-03-24T15:15:19;8.93;;;5.18;;
77866;SDS011;67271;59.120;37.970;2023-03-24T15:17:48;7.65;;;4.03;;
77866;SDS011;67271;59.120;37.970;2023-03-24T15:20:22;5.93;;;3.60;;
77866;SDS011;67271;59.120;37.970;2023-03-24T15:23:03;5.65;;;3.38;;
77866;SDS011;67271;59.120;37.970;2023-03-24T15:25:31;4.57;;;3.15;;
77866;SDS011;67271;59.120;37.970;2023-03-24T15:28:00;8.68;;;4.22;;
77866;SDS011;67271;59.120;37.970;2023-03-24T15:30:26;6.97;;;3.67;;
77866;SDS011;67271;59.120;37.970;2023-03-24T15:32:53;7.53;;;4.32;;
77866;SDS011;67271;59.120;37.970;2023-03-24T15:35:22;5.57;;;2.95;;
77866;SDS011;67271;59.120;37.970;2023-03-24T15:37:58;6.65;;;3.67;;
77866;SDS011;67271;59.120;37.970;2023-03-24T15:42:55;4.57;;;3.10;;
77866;SDS011;67271;59.120;37.970;2023-03-24T15:45:44;4.68;;;2.78;;
77866;SDS011;67271;59.120;37.970;2023-03-24T15:48:18;4.82;;;3.05;;
77866;SDS011;67271;59.120;37.970;2023-03-24T15:50:59;4.55;;;2.55;;
77866;SDS011;67271;59.120;37.970;2023-03-24T15:58:47;3.83;;;2.38;;
77866;SDS011;67271;59.120;37.970;2023-03-24T16:01:16;4.63;;;2.90;;
77866;SDS011;67271;59.120;37.970;2023-03-24T16:03:45;5.28;;;3.20;;
77866;SDS011;67271;59.120;37.970;2023-03-24T16:06:15;4.25;;;2.70;;
77866;SDS011;67271;59.120;37.970;2023-03-24T16:08:51;6.00;;;3.22;;
77866;SDS011;67271;59.120;37.970;2023-03-24T16:11:17;7.07;;;3.92;;
77866;SDS011;67271;59.120;37.970;2023-03-24T16:13:43;4.93;;;3.22;;
77866;SDS011;67271;59.120;37.970;2023-03-24T16:18:40;7.55;;;4.47;;
77866;SDS011;67271;59.120;37.970;2023-03-24T16:23:38;7.70;;;4.13;;
77866;SDS011;67271;59.120;37.970;2023-03-24T16:26:04;4.43;;;3.25;;
77866;SDS011;67271;59.120;37.970;2023-03-24T16:28:32;7.00;;;4.07;;
77866;SDS011;67271;59.120;37.970;2023-03-24T16:31:00;7.40;;;5.18;;
77866;SDS011;67271;59.120;37.970;2023-03-24T16:33:27;8.55;;;4.80;;
77866;SDS011;67271;59.120;37.970;2023-03-24T16:38:23;7.82;;;5.03;;
77866;SDS011;67271;59.120;37.970;2023-03-24T16:40:51;12.45;;;5.35;;
77866;SDS011;67271;59.120;37.970;2023-03-24T16:43:19;14.93;;;6.85;;
77866;SDS011;67271;59.120;37.970;2023-03-24T16:45:46;12.85;;;6.57;;
77866;SDS011;67271;59.120;37.970;2023-03-24T16:48:13;22.38;;;5.63;;
77866;SDS011;67271;59.120;37.970;2023-03-24T16:50:44;10.20;;;5.05;;
77866;SDS011;67271;59.120;37.970;2023-03-24T16:53:14;8.63;;;4.97;;
77866;SDS011;67271;59.120;37.970;2023-03-24T16:55:40;13.60;;;4.90;;
77866;SDS011;67271;59.120;37.970;2023-03-24T16:58:06;20.77;;;5.00;;
77866;SDS011;67271;59.120;37.970;2023-03-24T17:00:33;8.93;;;4.60;;
77866;SDS011;67271;59.120;37.970;2023-03-24T17:03:01;31.75;;;5.78;;
77866;SDS011;67271;59.120;37.970;2023-03-24T17:05:29;14.73;;;5.25;;
77866;SDS011;67271;59.120;37.970;2023-03-24T17:08:01;19.88;;;5.50;;
77866;SDS011;67271;59.120;37.970;2023-03-24T17:10:27;21.25;;;5.63;;
77866;SDS011;67271;59.120;37.970;2023-03-24T17:12:54;38.75;;;5.53;;
77866;SDS011;67271;59.120;37.970;2023-03-24T17:15:22;44.83;;;6.32;;
77866;SDS011;67271;59.120;37.970;2023-03-24T17:17:52;31.20;;;6.00;;
77866;SDS011;67271;59.120;37.970;2023-03-24T17:20:20;57.30;;;7.57;;
77866;SDS011;67271;59.120;37.970;2023-03-24T17:22:50;47.47;;;12.00;;
77866;SDS011;67271;59.120;37.970;2023-03-24T17:25:22;37.47;;;7.90;;
77866;SDS011;67271;59.120;37.970;2023-03-24T17:27:49;35.47;;;8.65;;
77866;SDS011;67271;59.120;37.970;2023-03-24T17:30:16;19.45;;;7.53;;
77866;SDS011;67271;59.120;37.970;2023-03-24T17:32:45;24.70;;;7.97;;
77866;SDS011;67271;59.120;37.970;2023-03-24T17:35:12;24.40;;;9.63;;
77866;SDS011;67271;59.120;37.970;2023-03-24T17:37:39;24.13;;;8.07;;
77866;SDS011;67271;59.120;37.970;2023-03-24T17:40:06;23.73;;;8.93;;
77866;SDS011;67271;59.120;37.970;2023-03-24T17:42:35;24.42;;;8.23;;
77866;SDS011;67271;59.120;37.970;2023-03-24T17:45:03;20.77;;;7.95;;
77866;SDS011;67271;59.120;37.970;2023-03-24T17:47:31;15.07;;;6.45;;
77866;SDS011;67271;59.120;37.970;2023-03-24T17:49:57;20.83;;;7.05;;
77866;SDS011;67271;59.120;37.970;2023-03-24T17:52:22;18.58;;;7.55;;
77866;SDS011;67271;59.120;37.970;2023-03-24T17:54:48;14.80;;;6.38;;
77866;SDS011;67271;59.120;37.970;2023-03-24T17:57:14;17.55;;;7.32;;